sensor_id;sensor_type;location;lat;lon;timestamp;pressure;altitude;pressure_sealevel;temperature;humidity
55466;BME280;41329;41.594;23.810;2023-07-28T00:02:04;95285.00;;;18.82;40.44
55466;BME280;41329;41.594;23.810;2023-07-28T00:04:30;95269.47;;;18.78;40.75
55466;BME280;41329;41.594;23.810;2023-07-28T00:06:55;95275.50;;;18.76;40.97
55466;BME280;41329;41.594;23.810;2023-07-28T00:09:21;95276.34;;;18.73;40.90
55466;BME280;41329;41.594;23.810;2023-07-28T00:11:48;95235.97;;;18.44;40.61
55466;BME280;41329;41.594;23.810;2023-07-28T00:14:13;95271.75;;;18.60;41.01
55466;BME280;41329;41.594;23.810;2023-07-28T00:16:39;95292.47;;;18.66;41.21
55466;BME280;41329;41.594;23.810;2023-07-28T00:19:05;95278.09;;;18.64;40.90
55466;BME280;41329;41.594;23.810;2023-07-28T00:21:31;95272.16;;;18.58;41.00
55466;BME280;41329;41.594;23.810;2023-07-28T00:23:56;95255.22;;;18.42;41.05
55466;BME280;41329;41.594;23.810;2023-07-28T00:26:22;95285.88;;;18.53;41.02
55466;BME280;41329;41.594;23.810;2023-07-28T00:28:47;95270.00;;;18.43;41.23
55466;BME280;41329;41.594;23.810;2023-07-28T00:31:12;95280.38;;;18.46;41.43
55466;BME280;41329;41.594;23.810;2023-07-28T00:33:38;95270.50;;;18.38;41.24
55466;BME280;41329;41.594;23.810;2023-07-28T00:36:03;95283.28;;;18.39;41.13
55466;BME280;41329;41.594;23.810;2023-07-28T00:38:29;95288.97;;;18.32;41.17
55466;BME280;41329;41.594;23.810;2023-07-28T00:40:54;95288.72;;;18.19;41.46
55466;BME280;41329;41.594;23.810;2023-07-28T00:43:19;95275.72;;;18.06;41.82
55466;BME280;41329;41.594;23.810;2023-07-28T00:45:45;95299.72;;;18.07;41.97
55466;BME280;41329;41.594;23.810;2023-07-28T00:48:12;95295.00;;;18.00;41.99
55466;BME280;41329;41.594;23.810;2023-07-28T00:50:41;95257.81;;;17.69;42.25
55466;BME280;41329;41.594;23.810;2023-07-28T00:53:07;95290.09;;;17.77;42.88
55466;BME280;41329;41.594;23.810;2023-07-28T00:55:32;95288.88;;;17.78;43.09
55466;BME280;41329;41.594;23.810;2023-07-28T00:57:58;95281.09;;;17.59;43.20
55466;BME280;41329;41.594;23.810;2023-07-28T01:00:24;95294.13;;;17.39;43.85
55466;BME280;41329;41.594;23.810;2023-07-28T01:02:49;95276.94;;;17.37;43.58
55466;BME280;41329;41.594;23.810;2023-07-28T01:05:15;95303.59;;;17.49;43.59
55466;BME280;41329;41.594;23.810;2023-07-28T01:10:24;95288.44;;;17.46;44.43
55466;BME280;41329;41.594;23.810;2023-07-28T01:12:51;95289.31;;;17.40;44.08
55466;BME280;41329;41.594;23.810;2023-07-28T01:15:17;95277.75;;;17.34;44.31
55466;BME280;41329;41.594;23.810;2023-07-28T01:17:42;95298.53;;;17.37;44.58
55466;BME280;41329;41.594;23.810;2023-07-28T01:20:08;95273.91;;;17.25;44.53
55466;BME280;41329;41.594;23.810;2023-07-28T01:27:51;95308.97;;;17.33;44.56
55466;BME280;41329;41.594;23.810;2023-07-28T01:30:17;95301.13;;;17.17;44.60
55466;BME280;41329;41.594;23.810;2023-07-28T01:32:44;95288.84;;;17.08;44.90
55466;BME280;41329;41.594;23.810;2023-07-28T01:35:10;95297.25;;;17.04;45.39
55466;BME280;41329;41.594;23.810;2023-07-28T01:37:35;95290.19;;;16.93;45.04
55466;BME280;41329;41.594;23.810;2023-07-28T01:40:01;95298.19;;;16.91;44.84
55466;BME280;41329;41.594;23.810;2023-07-28T01:42:27;95312.84;;;17.02;44.58
55466;BME280;41329;41.594;23.810;2023-07-28T01:44:52;95303.75;;;16.94;44.73
55466;BME280;41329;41.594;23.810;2023-07-28T01:47:18;95296.66;;;16.83;45.48
55466;BME280;41329;41.594;23.810;2023-07-28T01:49:43;95297.13;;;16.74;46.36
55466;BME280;41329;41.594;23.810;2023-07-28T01:52:08;95287.59;;;16.68;46.00
55466;BME280;41329;41.594;23.810;2023-07-28T01:54:34;95283.19;;;16.67;46.06
55466;BME280;41329;41.594;23.810;2023-07-28T01:56:59;95301.25;;;16.56;45.92
55466;BME280;41329;41.594;23.810;2023-07-28T01:59:24;95312.44;;;16.56;46.27
55466;BME280;41329;41.594;23.810;2023-07-28T02:01:50;95319.59;;;16.57;46.02
55466;BME280;41329;41.594;23.810;2023-07-28T02:04:15;95308.94;;;16.41;46.15
55466;BME280;41329;41.594;23.810;2023-07-28T02:06:41;95306.97;;;16.35;46.64
55466;BME280;41329;41.594;23.810;2023-07-28T02:09:07;95312.13;;;16.40;47.25
55466;BME280;41329;41.594;23.810;2023-07-28T02:11:32;95296.19;;;16.37;47.23
55466;BME280;41329;41.594;23.810;2023-07-28T02:13:57;95309.34;;;16.36;47.17
55466;BME280;41329;41.594;23.810;2023-07-28T02:16:23;95300.63;;;16.27;47.49
55466;BME280;41329;41.594;23.810;2023-07-28T02:18:49;95312.34;;;16.05;48.04
55466;BME280;41329;41.594;23.810;2023-07-28T02:21:14;95308.78;;;15.94;48.62
55466;BME280;41329;41.594;23.810;2023-07-28T02:23:40;95316.00;;;15.88;48.95
55466;BME280;41329;41.594;23.810;2023-07-28T02:26:06;95333.53;;;15.92;49.46
55466;BME280;41329;41.594;23.810;2023-07-28T02:28:31;95344.66;;;15.95;48.93
55466;BME280;41329;41.594;23.810;2023-07-28T02:30:57;95340.31;;;15.94;48.37
55466;BME280;41329;41.594;23.810;2023-07-28T02:33:22;95342.28;;;15.97;48.02
55466;BME280;41329;41.594;23.810;2023-07-28T02:35:47;95343.53;;;15.89;48.70
55466;BME280;41329;41.594;23.810;2023-07-28T02:38:13;95343.94;;;15.84;48.77
55466;BME280;41329;41.594;23.810;2023-07-28T02:40:38;95355.09;;;15.84;48.89
55466;BME280;41329;41.594;23.810;2023-07-28T02:43:03;95348.72;;;15.84;48.21
55466;BME280;41329;41.594;23.810;2023-07-28T02:45:29;95345.16;;;15.80;48.12
55466;BME280;41329;41.594;23.810;2023-07-28T02:47:54;95345.16;;;15.80;48.80
55466;BME280;41329;41.594;23.810;2023-07-28T02:50:20;95354.31;;;15.80;48.86
55466;BME280;41329;41.594;23.810;2023-07-28T02:52:45;95355.91;;;15.81;48.67
55466;BME280;41329;41.594;23.810;2023-07-28T02:55:11;95366.25;;;15.81;48.23
55466;BME280;41329;41.594;23.810;2023-07-28T02:57:36;95361.16;;;15.69;48.31
55466;BME280;41329;41.594;23.810;2023-07-28T03:00:02;95353.56;;;15.62;48.18
55466;BME280;41329;41.594;23.810;2023-07-28T03:02:30;95365.94;;;15.61;48.83
55466;BME280;41329;41.594;23.810;2023-07-28T03:04:55;95371.53;;;15.58;48.97
55466;BME280;41329;41.594;23.810;2023-07-28T03:07:20;95370.72;;;15.61;48.95
55466;BME280;41329;41.594;23.810;2023-07-28T03:09:46;95359.16;;;15.52;49.31
55466;BME280;41329;41.594;23.810;2023-07-28T03:12:11;95365.16;;;15.61;48.86
55466;BME280;41329;41.594;23.810;2023-07-28T03:14:36;95371.91;;;15.60;48.72
55466;BME280;41329;41.594;23.810;2023-07-28T03:17:02;95353.63;;;15.48;49.00
55466;BME280;41329;41.594;23.810;2023-07-28T03:19:27;95378.72;;;15.55;49.08
55466;BME280;41329;41.594;23.810;2023-07-28T03:21:53;95383.88;;;15.50;49.40
55466;BME280;41329;41.594;23.810;2023-07-28T03:24:18;95375.94;;;15.41;49.61
55466;BME280;41329;41.594;23.810;2023-07-28T03:26:43;95377.91;;;15.44;49.23
55466;BME280;41329;41.594;23.810;2023-07-28T03:29:09;95385.50;;;15.44;49.46
55466;BME280;41329;41.594;23.810;2023-07-28T03:31:34;95384.69;;;15.43;49.44
55466;BME280;41329;41.594;23.810;2023-07-28T03:34:01;95382.72;;;15.40;49.74
55466;BME280;41329;41.594;23.810;2023-07-28T03:36:27;95371.56;;;15.33;49.95
55466;BME280;41329;41.594;23.810;2023-07-28T03:38:52;95374.34;;;15.33;50.16
55466;BME280;41329;41.594;23.810;2023-07-28T03:41:18;95383.13;;;15.42;49.88
55466;BME280;41329;41.594;23.810;2023-07-28T03:43:43;95387.88;;;15.42;49.85
55466;BME280;41329;41.594;23.810;2023-07-28T03:46:09;95379.13;;;15.29;49.98
55466;BME280;41329;41.594;23.810;2023-07-28T03:48:34;95382.34;;;15.07;50.44
55466;BME280;41329;41.594;23.810;2023-07-28T03:51:00;95387.09;;;15.17;50.62
55466;BME280;41329;41.594;23.810;2023-07-28T03:53:25;95380.72;;;15.16;50.52
55466;BME280;41329;41.594;23.810;2023-07-28T03:55:51;95392.25;;;15.32;50.66
55466;BME280;41329;41.594;23.810;2023-07-28T03:58:16;95386.28;;;15.27;50.69
55466;BME280;41329;41.594;23.810;2023-07-28T04:00:41;95393.84;;;15.40;50.86
55466;BME280;41329;41.594;23.810;2023-07-28T04:03:07;95390.28;;;15.40;50.59
55466;BME280;41329;41.594;23.810;2023-07-28T04:05:32;95398.66;;;15.40;50.48
55466;BME280;41329;41.594;23.810;2023-07-28T04:07:58;95392.66;;;15.41;50.72
55466;BME280;41329;41.594;23.810;2023-07-28T04:10:23;95401.44;;;15.50;50.77
55466;BME280;41329;41.594;23.810;2023-07-28T04:12:48;95408.59;;;15.58;50.97
55466;BME280;41329;41.594;23.810;2023-07-28T04:15:14;95417.72;;;15.59;50.30
55466;BME280;41329;41.594;23.810;2023-07-28T04:17:39;95408.19;;;15.49;50.24
55466;BME280;41329;41.594;23.810;2023-07-28T04:20:06;95419.75;;;15.44;50.46
55466;BME280;41329;41.594;23.810;2023-07-28T04:22:31;95415.38;;;15.29;50.75
55466;BME280;41329;41.594;23.810;2023-07-28T04:24:56;95415.78;;;15.07;51.41
55466;BME280;41329;41.594;23.810;2023-07-28T04:27:22;95424.91;;;15.07;51.63
55466;BME280;41329;41.594;23.810;2023-07-28T04:29:47;95435.25;;;15.14;51.84
55466;BME280;41329;41.594;23.810;2023-07-28T04:32:13;95431.28;;;15.18;52.14
55466;BME280;41329;41.594;23.810;2023-07-28T04:34:38;95443.25;;;15.29;51.81
55466;BME280;41329;41.594;23.810;2023-07-28T04:37:04;95444.44;;;15.32;51.03
55466;BME280;41329;41.594;23.810;2023-07-28T04:39:29;95442.84;;;15.41;51.56
55466;BME280;41329;41.594;23.810;2023-07-28T04:41:55;95433.31;;;15.42;51.54
55466;BME280;41329;41.594;23.810;2023-07-28T04:44:20;95430.09;;;15.33;51.64
55466;BME280;41329;41.594;23.810;2023-07-28T04:46:45;95448.00;;;15.53;52.01
55466;BME280;41329;41.594;23.810;2023-07-28T04:49:14;95438.47;;;15.58;51.91
55466;BME280;41329;41.594;23.810;2023-07-28T04:51:39;95442.81;;;15.69;51.41
55466;BME280;41329;41.594;23.810;2023-07-28T04:54:04;95421.31;;;15.52;51.28
55466;BME280;41329;41.594;23.810;2023-07-28T04:56:30;95438.44;;;15.75;51.89
55466;BME280;41329;41.594;23.810;2023-07-28T04:58:55;95443.56;;;15.91;51.77
55466;BME280;41329;41.594;23.810;2023-07-28T05:01:21;95441.94;;;16.00;51.42
55466;BME280;41329;41.594;23.810;2023-07-28T05:03:46;95448.28;;;16.11;50.79
55466;BME280;41329;41.594;23.810;2023-07-28T05:06:13;95441.13;;;16.07;50.52
55466;BME280;41329;41.594;23.810;2023-07-28T05:08:38;95451.88;;;16.12;50.84
55466;BME280;41329;41.594;23.810;2023-07-28T05:11:03;95453.09;;;16.11;52.11
55466;BME280;41329;41.594;23.810;2023-07-28T05:13:29;95454.28;;;15.99;53.08
55466;BME280;41329;41.594;23.810;2023-07-28T05:15:54;95449.94;;;15.88;53.00
55466;BME280;41329;41.594;23.810;2023-07-28T05:18:19;95444.78;;;15.76;53.03
55466;BME280;41329;41.594;23.810;2023-07-28T05:20:45;95442.00;;;15.83;53.66
55466;BME280;41329;41.594;23.810;2023-07-28T05:23:10;95429.28;;;15.54;53.96
55466;BME280;41329;41.594;23.810;2023-07-28T05:25:36;95430.09;;;15.58;54.09
55466;BME280;41329;41.594;23.810;2023-07-28T05:28:01;95433.28;;;15.49;54.15
55466;BME280;41329;41.594;23.810;2023-07-28T05:30:26;95436.88;;;15.43;54.63
55466;BME280;41329;41.594;23.810;2023-07-28T05:32:54;95447.25;;;15.42;54.53
55466;BME280;41329;41.594;23.810;2023-07-28T05:35:19;95431.66;;;15.31;54.55
55466;BME280;41329;41.594;23.810;2023-07-28T05:37:46;95442.81;;;15.31;54.83
55466;BME280;41329;41.594;23.810;2023-07-28T05:40:12;95430.91;;;15.44;55.10
55466;BME280;41329;41.594;23.810;2023-07-28T05:42:37;95443.66;;;15.42;54.40
55466;BME280;41329;41.594;23.810;2023-07-28T05:45:03;95440.84;;;15.31;54.57
55466;BME280;41329;41.594;23.810;2023-07-28T05:47:28;95432.13;;;15.40;54.05
55466;BME280;41329;41.594;23.810;2023-07-28T05:49:54;95434.06;;;15.64;54.11
55466;BME280;41329;41.594;23.810;2023-07-28T05:52:19;95427.72;;;15.42;53.23
55466;BME280;41329;41.594;23.810;2023-07-28T05:54:45;95440.03;;;15.66;53.67
55466;BME280;41329;41.594;23.810;2023-07-28T05:57:10;95445.56;;;15.90;53.65
55466;BME280;41329;41.594;23.810;2023-07-28T05:59:36;95431.59;;;15.97;52.26
55466;BME280;41329;41.594;23.810;2023-07-28T06:02:01;95441.19;;;15.89;51.93
55466;BME280;41329;41.594;23.810;2023-07-28T06:04:27;95449.94;;;15.91;51.75
55466;BME280;41329;41.594;23.810;2023-07-28T06:06:52;95445.09;;;16.09;51.67
55466;BME280;41329;41.594;23.810;2023-07-28T06:09:18;95446.63;;;16.28;51.27
55466;BME280;41329;41.594;23.810;2023-07-28T06:11:44;95438.19;;;16.49;50.65
55466;BME280;41329;41.594;23.810;2023-07-28T06:14:09;95442.94;;;16.52;50.10
55466;BME280;41329;41.594;23.810;2023-07-28T06:16:35;95436.88;;;16.67;49.84
55466;BME280;41329;41.594;23.810;2023-07-28T06:19:00;95387.91;;;16.49;48.76
55466;BME280;41329;41.594;23.810;2023-07-28T06:21:29;95429.97;;;16.86;49.29
55466;BME280;41329;41.594;23.810;2023-07-28T06:23:54;95437.00;;;17.08;49.07
55466;BME280;41329;41.594;23.810;2023-07-28T06:26:19;95423.72;;;17.22;48.63
55466;BME280;41329;41.594;23.810;2023-07-28T06:28:45;95414.38;;;17.43;48.57
55466;BME280;41329;41.594;23.810;2023-07-28T06:31:10;95417.03;;;17.57;47.38
55466;BME280;41329;41.594;23.810;2023-07-28T06:33:36;95421.22;;;17.79;46.46
55466;BME280;41329;41.594;23.810;2023-07-28T06:36:02;95421.81;;;17.97;46.03
55466;BME280;41329;41.594;23.810;2023-07-28T06:38:28;95429.72;;;18.06;44.94
55466;BME280;41329;41.594;23.810;2023-07-28T06:40:53;95424.56;;;18.01;45.17
55466;BME280;41329;41.594;23.810;2023-07-28T06:43:19;95427.50;;;18.24;44.57
55466;BME280;41329;41.594;23.810;2023-07-28T06:45:45;95424.59;;;18.31;44.20
55466;BME280;41329;41.594;23.810;2023-07-28T06:48:10;95417.28;;;18.44;43.56
55466;BME280;41329;41.594;23.810;2023-07-28T06:50:35;95405.69;;;18.42;43.39
55466;BME280;41329;41.594;23.810;2023-07-28T06:53:01;95419.03;;;18.61;43.53
55466;BME280;41329;41.594;23.810;2023-07-28T06:55:26;95419.59;;;18.79;43.22
55466;BME280;41329;41.594;23.810;2023-07-28T06:57:52;95410.56;;;18.94;42.58
55466;BME280;41329;41.594;23.810;2023-07-28T07:00:17;95411.78;;;19.20;43.26
55466;BME280;41329;41.594;23.810;2023-07-28T07:02:43;95418.53;;;19.22;41.52
55466;BME280;41329;41.594;23.810;2023-07-28T07:05:09;95424.56;;;19.21;40.99
55466;BME280;41329;41.594;23.810;2023-07-28T07:07:34;95406.91;;;19.24;40.53
55466;BME280;41329;41.594;23.810;2023-07-28T07:09:59;95401.94;;;19.35;40.73
55466;BME280;41329;41.594;23.810;2023-07-28T07:12:25;95411.69;;;19.50;40.67
55466;BME280;41329;41.594;23.810;2023-07-28T07:14:51;95416.75;;;19.58;39.67
55466;BME280;41329;41.594;23.810;2023-07-28T07:17:17;95416.75;;;19.58;38.98
55466;BME280;41329;41.594;23.810;2023-07-28T07:19:42;95426.63;;;19.66;38.87
55466;BME280;41329;41.594;23.810;2023-07-28T07:22:08;95416.44;;;19.76;39.48
55466;BME280;41329;41.594;23.810;2023-07-28T07:24:33;95415.13;;;20.03;39.10
55466;BME280;41329;41.594;23.810;2023-07-28T07:26:58;95425.19;;;20.24;38.54
55466;BME280;41329;41.594;23.810;2023-07-28T07:29:24;95410.19;;;20.30;37.82
55466;BME280;41329;41.594;23.810;2023-07-28T07:31:49;95397.81;;;20.28;38.56
55466;BME280;41329;41.594;23.810;2023-07-28T07:34:20;95409.03;;;20.47;37.72
55466;BME280;41329;41.594;23.810;2023-07-28T07:36:45;95397.22;;;20.56;37.51
55466;BME280;41329;41.594;23.810;2023-07-28T07:39:11;95400.84;;;20.72;37.08
55466;BME280;41329;41.594;23.810;2023-07-28T07:41:36;95382.31;;;20.59;37.87
55466;BME280;41329;41.594;23.810;2023-07-28T07:44:01;95395.66;;;20.90;37.67
55466;BME280;41329;41.594;23.810;2023-07-28T07:46:27;95382.09;;;20.85;37.70
55466;BME280;41329;41.594;23.810;2023-07-28T07:48:53;95383.81;;;20.99;37.12
55466;BME280;41329;41.594;23.810;2023-07-28T07:51:18;95384.69;;;21.12;37.32
55466;BME280;41329;41.594;23.810;2023-07-28T07:53:44;95376.19;;;21.31;36.99
55466;BME280;41329;41.594;23.810;2023-07-28T07:56:09;95378.66;;;21.45;37.23
55466;BME280;41329;41.594;23.810;2023-07-28T07:58:35;95376.28;;;21.60;36.82
55466;BME280;41329;41.594;23.810;2023-07-28T08:01:00;95367.19;;;21.68;36.97
55466;BME280;41329;41.594;23.810;2023-07-28T08:03:26;95376.63;;;21.78;36.55
55466;BME280;41329;41.594;23.810;2023-07-28T08:05:52;95361.72;;;21.93;36.20
55466;BME280;41329;41.594;23.810;2023-07-28T08:08:18;95381.50;;;22.06;36.40
55466;BME280;41329;41.594;23.810;2023-07-28T08:10:48;95375.47;;;22.20;36.00
55466;BME280;41329;41.594;23.810;2023-07-28T08:13:14;95375.31;;;22.39;35.26
55466;BME280;41329;41.594;23.810;2023-07-28T08:15:39;95362.75;;;22.56;35.41
55466;BME280;41329;41.594;23.810;2023-07-28T08:18:05;95356.69;;;22.70;35.43
55466;BME280;41329;41.594;23.810;2023-07-28T08:20:30;95378.94;;;22.93;34.48
55466;BME280;41329;41.594;23.810;2023-07-28T08:22:55;95367.31;;;23.04;34.17
55466;BME280;41329;41.594;23.810;2023-07-28T08:25:21;95361.34;;;23.02;34.25
55466;BME280;41329;41.594;23.810;2023-07-28T08:27:48;95352.88;;;23.02;32.84
55466;BME280;41329;41.594;23.810;2023-07-28T08:30:14;95348.91;;;23.12;33.00
55466;BME280;41329;41.594;23.810;2023-07-28T08:32:43;95356.50;;;23.28;33.04
55466;BME280;41329;41.594;23.810;2023-07-28T08:35:09;95367.44;;;23.51;32.58
55466;BME280;41329;41.594;23.810;2023-07-28T08:37:35;95360.75;;;23.57;31.99
55466;BME280;41329;41.594;23.810;2023-07-28T08:40:00;95355.81;;;23.83;32.10
55466;BME280;41329;41.594;23.810;2023-07-28T08:42:29;95334.94;;;23.93;31.23
55466;BME280;41329;41.594;23.810;2023-07-28T08:44:54;95330.16;;;23.90;31.25
55466;BME280;41329;41.594;23.810;2023-07-28T08:47:20;95321.97;;;24.04;31.06
55466;BME280;41329;41.594;23.810;2023-07-28T08:49:46;95327.25;;;24.15;30.90
55466;BME280;41329;41.594;23.810;2023-07-28T08:52:15;95329.66;;;24.47;30.53
55466;BME280;41329;41.594;23.810;2023-07-28T08:54:41;95315.53;;;24.47;30.30
55466;BME280;41329;41.594;23.810;2023-07-28T08:57:08;95308.75;;;24.66;31.13
55466;BME280;41329;41.594;23.810;2023-07-28T08:59:34;95318.22;;;25.02;30.44
55466;BME280;41329;41.594;23.810;2023-07-28T09:02:00;95318.72;;;25.10;29.02
55466;BME280;41329;41.594;23.810;2023-07-28T09:04:26;95308.22;;;25.19;29.69
55466;BME280;41329;41.594;23.810;2023-07-28T09:06:52;95303.13;;;25.45;29.37
55466;BME280;41329;41.594;23.810;2023-07-28T09:09:20;95311.03;;;25.77;29.97
55466;BME280;41329;41.594;23.810;2023-07-28T09:11:52;95294.84;;;25.77;28.86
55466;BME280;41329;41.594;23.810;2023-07-28T09:14:20;95293.91;;;25.89;29.05
55466;BME280;41329;41.594;23.810;2023-07-28T09:16:46;95287.13;;;25.87;28.70
55466;BME280;41329;41.594;23.810;2023-07-28T09:19:12;95291.09;;;25.98;28.84
55466;BME280;41329;41.594;23.810;2023-07-28T09:21:39;95287.63;;;26.12;28.51
55466;BME280;41329;41.594;23.810;2023-07-28T09:24:12;95290.75;;;26.32;28.50
55466;BME280;41329;41.594;23.810;2023-07-28T09:26:45;95289.84;;;26.26;28.01
55466;BME280;41329;41.594;23.810;2023-07-28T09:29:20;95289.19;;;26.31;27.72
55466;BME280;41329;41.594;23.810;2023-07-28T09:31:47;95279.88;;;26.40;29.20
55466;BME280;41329;41.594;23.810;2023-07-28T09:34:23;95285.81;;;26.69;27.99
55466;BME280;41329;41.594;23.810;2023-07-28T09:36:49;95275.31;;;26.60;27.11
55466;BME280;41329;41.594;23.810;2023-07-28T09:39:15;95281.41;;;26.77;28.21
55466;BME280;41329;41.594;23.810;2023-07-28T09:41:42;95284.88;;;26.72;27.43
55466;BME280;41329;41.594;23.810;2023-07-28T09:44:10;95276.44;;;26.95;28.16
55466;BME280;41329;41.594;23.810;2023-07-28T09:46:35;95276.19;;;27.26;27.16
55466;BME280;41329;41.594;23.810;2023-07-28T09:49:05;95277.34;;;27.43;27.45
55466;BME280;41329;41.594;23.810;2023-07-28T09:51:35;95274.22;;;27.41;24.67
55466;BME280;41329;41.594;23.810;2023-07-28T09:54:06;95261.50;;;27.27;25.77
55466;BME280;41329;41.594;23.810;2023-07-28T09:56:37;95240.16;;;27.32;26.06
55466;BME280;41329;41.594;23.810;2023-07-28T09:59:10;95243.59;;;27.59;25.42
55466;BME280;41329;41.594;23.810;2023-07-28T10:01:36;95254.38;;;27.79;25.55
55466;BME280;41329;41.594;23.810;2023-07-28T10:04:02;95245.97;;;27.61;24.92
55466;BME280;41329;41.594;23.810;2023-07-28T10:06:28;95237.19;;;27.73;26.01
55466;BME280;41329;41.594;23.810;2023-07-28T10:08:54;95244.03;;;27.91;25.83
55466;BME280;41329;41.594;23.810;2023-07-28T10:11:20;95233.03;;;27.84;24.83
55466;BME280;41329;41.594;23.810;2023-07-28T10:13:46;95226.66;;;27.89;24.68
55466;BME280;41329;41.594;23.810;2023-07-28T10:16:12;95246.34;;;28.16;26.04
55466;BME280;41329;41.594;23.810;2023-07-28T10:18:40;95222.31;;;28.17;25.52
55466;BME280;41329;41.594;23.810;2023-07-28T10:21:10;95228.41;;;28.24;25.60
55466;BME280;41329;41.594;23.810;2023-07-28T10:23:40;95226.09;;;28.52;26.89
55466;BME280;41329;41.594;23.810;2023-07-28T10:26:06;95218.91;;;28.85;26.73
55466;BME280;41329;41.594;23.810;2023-07-28T10:28:34;95213.19;;;29.14;25.05
55466;BME280;41329;41.594;23.810;2023-07-28T10:31:07;95210.56;;;29.31;25.15
55466;BME280;41329;41.594;23.810;2023-07-28T10:33:41;95202.72;;;29.26;25.00
55466;BME280;41329;41.594;23.810;2023-07-28T10:36:14;95196.59;;;28.98;25.07
55466;BME280;41329;41.594;23.810;2023-07-28T10:38:40;95186.78;;;28.85;26.10
55466;BME280;41329;41.594;23.810;2023-07-28T10:43:32;95182.47;;;29.04;26.31
55466;BME280;41329;41.594;23.810;2023-07-28T10:45:57;95182.19;;;29.22;25.57
55466;BME280;41329;41.594;23.810;2023-07-28T10:48:23;95176.66;;;29.33;25.05
55466;BME280;41329;41.594;23.810;2023-07-28T10:50:49;95172.09;;;29.21;26.09
55466;BME280;41329;41.594;23.810;2023-07-28T10:53:15;95170.75;;;29.36;26.13
55466;BME280;41329;41.594;23.810;2023-07-28T10:55:41;95171.06;;;29.58;25.04
55466;BME280;41329;41.594;23.810;2023-07-28T10:58:06;95168.59;;;29.66;26.01
55466;BME280;41329;41.594;23.810;2023-07-28T11:00:31;95163.94;;;29.68;26.31
55466;BME280;41329;41.594;23.810;2023-07-28T11:02:57;95166.06;;;29.93;26.89
55466;BME280;41329;41.594;23.810;2023-07-28T11:05:24;95169.13;;;29.90;25.61
55466;BME280;41329;41.594;23.810;2023-07-28T11:07:52;95167.00;;;29.65;26.17
55466;BME280;41329;41.594;23.810;2023-07-28T11:10:19;95151.75;;;29.68;26.02
55466;BME280;41329;41.594;23.810;2023-07-28T11:12:48;95157.63;;;29.84;25.83
55466;BME280;41329;41.594;23.810;2023-07-28T11:15:15;95159.09;;;30.20;27.65
55466;BME280;41329;41.594;23.810;2023-07-28T11:17:46;95148.03;;;30.58;25.08
55466;BME280;41329;41.594;23.810;2023-07-28T11:20:24;95152.91;;;30.78;25.63
55466;BME280;41329;41.594;23.810;2023-07-28T11:23:00;95151.78;;;31.01;25.08
55466;BME280;41329;41.594;23.810;2023-07-28T11:25:28;95147.66;;;31.07;25.12
55466;BME280;41329;41.594;23.810;2023-07-28T11:27:55;95149.03;;;31.17;24.67
55466;BME280;41329;41.594;23.810;2023-07-28T11:30:22;95134.69;;;31.06;24.49
55466;BME280;41329;41.594;23.810;2023-07-28T11:32:50;95117.22;;;30.99;25.96
55466;BME280;41329;41.594;23.810;2023-07-28T11:35:17;95127.78;;;31.24;24.93
55466;BME280;41329;41.594;23.810;2023-07-28T11:37:44;95119.28;;;31.35;24.65
55466;BME280;41329;41.594;23.810;2023-07-28T11:40:11;95131.53;;;31.46;24.16
55466;BME280;41329;41.594;23.810;2023-07-28T11:42:43;95121.63;;;31.42;24.80
55466;BME280;41329;41.594;23.810;2023-07-28T11:45:10;95119.59;;;31.48;24.36
55466;BME280;41329;41.594;23.810;2023-07-28T11:47:36;95119.53;;;31.37;25.80
55466;BME280;41329;41.594;23.810;2023-07-28T11:50:02;95127.81;;;31.29;25.42
55466;BME280;41329;41.594;23.810;2023-07-28T11:52:32;95129.47;;;31.10;26.11
55466;BME280;41329;41.594;23.810;2023-07-28T11:55:01;95120.31;;;30.95;24.83
55466;BME280;41329;41.594;23.810;2023-07-28T11:57:27;95121.09;;;30.65;25.30
55466;BME280;41329;41.594;23.810;2023-07-28T11:59:56;95110.81;;;30.73;25.56
55466;BME280;41329;41.594;23.810;2023-07-28T12:02:26;95103.75;;;31.05;26.36
55466;BME280;41329;41.594;23.810;2023-07-28T12:04:52;95110.94;;;31.37;25.05
55466;BME280;41329;41.594;23.810;2023-07-28T12:07:26;95091.31;;;31.66;23.75
55466;BME280;41329;41.594;23.810;2023-07-28T12:09:52;95099.19;;;31.77;24.12
55466;BME280;41329;41.594;23.810;2023-07-28T12:12:22;95100.81;;;32.00;23.78
55466;BME280;41329;41.594;23.810;2023-07-28T12:14:49;95090.16;;;32.17;22.39
55466;BME280;41329;41.594;23.810;2023-07-28T12:17:21;95090.16;;;32.06;23.25
55466;BME280;41329;41.594;23.810;2023-07-28T12:20:02;95081.00;;;31.91;23.64
55466;BME280;41329;41.594;23.810;2023-07-28T12:22:36;95080.75;;;31.89;24.10
55466;BME280;41329;41.594;23.810;2023-07-28T12:25:02;95064.38;;;32.00;23.86
55466;BME280;41329;41.594;23.810;2023-07-28T12:27:27;95073.75;;;32.12;22.65
55466;BME280;41329;41.594;23.810;2023-07-28T12:29:53;95070.13;;;32.11;22.36
55466;BME280;41329;41.594;23.810;2023-07-28T12:32:19;95050.84;;;31.90;21.91
55466;BME280;41329;41.594;23.810;2023-07-28T12:34:44;95061.53;;;32.06;21.25
55466;BME280;41329;41.594;23.810;2023-07-28T12:37:09;95068.59;;;32.27;22.13
55466;BME280;41329;41.594;23.810;2023-07-28T12:39:37;95052.22;;;32.39;21.54
55466;BME280;41329;41.594;23.810;2023-07-28T12:42:07;95053.47;;;32.21;20.56
55466;BME280;41329;41.594;23.810;2023-07-28T12:44:33;95065.19;;;32.17;21.04
55466;BME280;41329;41.594;23.810;2023-07-28T12:46:58;95056.59;;;32.17;20.64
55466;BME280;41329;41.594;23.810;2023-07-28T12:49:23;95062.84;;;32.16;20.44
55466;BME280;41329;41.594;23.810;2023-07-28T12:51:49;95053.19;;;31.97;20.56
55466;BME280;41329;41.594;23.810;2023-07-28T12:54:14;95057.09;;;31.94;20.70
55466;BME280;41329;41.594;23.810;2023-07-28T12:56:40;95058.69;;;32.06;20.59